Aviation Digital Data Service (ADDS)

Output produced by METARs form (1824 UTC 22 November 2017)
found at http://www.aviationweather.gov/adds/metars/
 
MKJP 221715Z 2218/2318 14015KT 9999 SCT018CB SCT034 
     TEMPO 2218/2222 8000 TSRA BKN018 BKN020CB 
     BECMG 2301/2303 35005KT 
     BECMG 2314/2316 14015KT
       
MKJS 221715Z 2218/2318 07015KT 9999 SCT018CB SCT020 
     TEMPO 2218/2222 8000 TSRA BKN018CB 
     BECMG 2301/2303 VRB03KT 
     BECMG 2314/2316 07015KT